sensor_id;sensor_type;location;lat;lon;timestamp;P1;durP1;ratioP1;P2;durP2;ratioP2
26040;SDS011;13816;53.628;9.950;2023-04-01T00:00:45;13.27;;;7.40;;
26040;SDS011;13816;53.628;9.950;2023-04-01T00:03:11;11.03;;;7.17;;
26040;SDS011;13816;53.628;9.950;2023-04-01T00:05:37;12.63;;;7.23;;
26040;SDS011;13816;53.628;9.950;2023-04-01T00:08:04;16.50;;;7.60;;
26040;SDS011;13816;53.628;9.950;2023-04-01T00:10:30;16.30;;;8.03;;
26040;SDS011;13816;53.628;9.950;2023-04-01T00:12:56;13.00;;;7.37;;
26040;SDS011;13816;53.628;9.950;2023-04-01T00:15:22;11.20;;;7.10;;
26040;SDS011;13816;53.628;9.950;2023-04-01T00:17:48;15.13;;;7.67;;
26040;SDS011;13816;53.628;9.950;2023-04-01T00:20:14;11.47;;;7.03;;
26040;SDS011;13816;53.628;9.950;2023-04-01T00:22:40;16.50;;;7.40;;
26040;SDS011;13816;53.628;9.950;2023-04-01T00:25:06;14.30;;;8.00;;
26040;SDS011;13816;53.628;9.950;2023-04-01T00:27:33;10.60;;;6.70;;
26040;SDS011;13816;53.628;9.950;2023-04-01T00:29:59;13.37;;;6.80;;
26040;SDS011;13816;53.628;9.950;2023-04-01T00:32:26;12.27;;;7.57;;
26040;SDS011;13816;53.628;9.950;2023-04-01T00:34:53;13.83;;;7.10;;
26040;SDS011;13816;53.628;9.950;2023-04-01T00:37:19;14.77;;;7.10;;
26040;SDS011;13816;53.628;9.950;2023-04-01T00:39:46;16.43;;;7.87;;
26040;SDS011;13816;53.628;9.950;2023-04-01T00:42:12;15.60;;;7.43;;
26040;SDS011;13816;53.628;9.950;2023-04-01T00:44:39;12.83;;;6.77;;
26040;SDS011;13816;53.628;9.950;2023-04-01T00:47:05;12.70;;;7.10;;
26040;SDS011;13816;53.628;9.950;2023-04-01T00:49:32;13.50;;;7.00;;
26040;SDS011;13816;53.628;9.950;2023-04-01T00:52:00;13.63;;;7.73;;
26040;SDS011;13816;53.628;9.950;2023-04-01T00:54:27;15.00;;;7.43;;
26040;SDS011;13816;53.628;9.950;2023-04-01T00:56:59;12.03;;;6.80;;
26040;SDS011;13816;53.628;9.950;2023-04-01T00:59:27;11.97;;;6.77;;
26040;SDS011;13816;53.628;9.950;2023-04-01T01:01:55;12.20;;;6.63;;
26040;SDS011;13816;53.628;9.950;2023-04-01T01:06:53;9.00;;;6.80;;
26040;SDS011;13816;53.628;9.950;2023-04-01T01:09:25;13.27;;;7.73;;
26040;SDS011;13816;53.628;9.950;2023-04-01T01:11:54;13.50;;;7.20;;
26040;SDS011;13816;53.628;9.950;2023-04-01T01:14:29;17.43;;;7.80;;
26040;SDS011;13816;53.628;9.950;2023-04-01T01:22:32;11.20;;;6.67;;
26040;SDS011;13816;53.628;9.950;2023-04-01T01:25:11;12.73;;;7.63;;
26040;SDS011;13816;53.628;9.950;2023-04-01T01:27:41;15.10;;;8.60;;
26040;SDS011;13816;53.628;9.950;2023-04-01T01:35:31;8.93;;;6.53;;
26040;SDS011;13816;53.628;9.950;2023-04-01T01:38:00;14.77;;;7.70;;
26040;SDS011;13816;53.628;9.950;2023-04-01T01:40:28;11.13;;;6.30;;
26040;SDS011;13816;53.628;9.950;2023-04-01T01:42:56;15.63;;;7.60;;
26040;SDS011;13816;53.628;9.950;2023-04-01T01:45:24;15.40;;;7.03;;
26040;SDS011;13816;53.628;9.950;2023-04-01T01:47:52;13.33;;;7.43;;
26040;SDS011;13816;53.628;9.950;2023-04-01T01:50:18;10.90;;;6.67;;
26040;SDS011;13816;53.628;9.950;2023-04-01T01:52:45;18.33;;;8.07;;
26040;SDS011;13816;53.628;9.950;2023-04-01T01:56:13;9.60;;;6.43;;
26040;SDS011;13816;53.628;9.950;2023-04-01T02:00:45;10.97;;;7.10;;
26040;SDS011;13816;53.628;9.950;2023-04-01T02:03:12;14.10;;;7.80;;
26040;SDS011;13816;53.628;9.950;2023-04-01T02:05:39;10.67;;;7.00;;
26040;SDS011;13816;53.628;9.950;2023-04-01T02:08:10;14.10;;;7.33;;
26040;SDS011;13816;53.628;9.950;2023-04-01T02:10:39;14.30;;;7.00;;
26040;SDS011;13816;53.628;9.950;2023-04-01T02:13:11;14.17;;;8.07;;
26040;SDS011;13816;53.628;9.950;2023-04-01T02:15:41;12.90;;;7.90;;
26040;SDS011;13816;53.628;9.950;2023-04-01T02:18:09;12.90;;;6.97;;
26040;SDS011;13816;53.628;9.950;2023-04-01T02:20:36;16.43;;;7.50;;
26040;SDS011;13816;53.628;9.950;2023-04-01T02:23:04;12.50;;;7.17;;
26040;SDS011;13816;53.628;9.950;2023-04-01T02:25:33;9.60;;;6.13;;
26040;SDS011;13816;53.628;9.950;2023-04-01T02:28:00;11.13;;;6.27;;
26040;SDS011;13816;53.628;9.950;2023-04-01T02:30:27;10.07;;;6.33;;
26040;SDS011;13816;53.628;9.950;2023-04-01T02:32:55;15.30;;;6.87;;
26040;SDS011;13816;53.628;9.950;2023-04-01T02:35:22;10.80;;;7.40;;
26040;SDS011;13816;53.628;9.950;2023-04-01T02:37:49;12.33;;;6.57;;
26040;SDS011;13816;53.628;9.950;2023-04-01T02:40:16;14.33;;;6.80;;
26040;SDS011;13816;53.628;9.950;2023-04-01T02:42:43;13.37;;;7.13;;
26040;SDS011;13816;53.628;9.950;2023-04-01T02:45:10;12.23;;;7.10;;
26040;SDS011;13816;53.628;9.950;2023-04-01T02:47:36;10.07;;;6.60;;
26040;SDS011;13816;53.628;9.950;2023-04-01T02:50:03;11.90;;;6.40;;
26040;SDS011;13816;53.628;9.950;2023-04-01T02:52:29;12.70;;;7.20;;
26040;SDS011;13816;53.628;9.950;2023-04-01T02:54:59;10.67;;;6.93;;
26040;SDS011;13816;53.628;9.950;2023-04-01T02:57:25;10.00;;;6.50;;
26040;SDS011;13816;53.628;9.950;2023-04-01T02:59:51;12.13;;;7.60;;
26040;SDS011;13816;53.628;9.950;2023-04-01T03:02:17;14.00;;;7.83;;
26040;SDS011;13816;53.628;9.950;2023-04-01T03:04:44;14.73;;;7.40;;
26040;SDS011;13816;53.628;9.950;2023-04-01T03:07:10;12.57;;;7.07;;
26040;SDS011;13816;53.628;9.950;2023-04-01T03:09:37;14.67;;;7.50;;
26040;SDS011;13816;53.628;9.950;2023-04-01T03:12:03;12.27;;;7.60;;
26040;SDS011;13816;53.628;9.950;2023-04-01T03:14:36;11.50;;;7.30;;
26040;SDS011;13816;53.628;9.950;2023-04-01T03:17:02;9.77;;;6.83;;
26040;SDS011;13816;53.628;9.950;2023-04-01T03:19:28;11.93;;;7.90;;
26040;SDS011;13816;53.628;9.950;2023-04-01T03:21:54;14.33;;;8.70;;
26040;SDS011;13816;53.628;9.950;2023-04-01T03:24:21;15.37;;;7.80;;
26040;SDS011;13816;53.628;9.950;2023-04-01T03:26:47;11.57;;;8.20;;
26040;SDS011;13816;53.628;9.950;2023-04-01T03:29:13;12.70;;;7.73;;
26040;SDS011;13816;53.628;9.950;2023-04-01T03:31:40;14.57;;;7.97;;
26040;SDS011;13816;53.628;9.950;2023-04-01T03:34:07;12.80;;;8.10;;
26040;SDS011;13816;53.628;9.950;2023-04-01T03:36:33;14.43;;;7.57;;
26040;SDS011;13816;53.628;9.950;2023-04-01T03:38:59;12.40;;;8.07;;
26040;SDS011;13816;53.628;9.950;2023-04-01T03:41:35;10.73;;;7.20;;
26040;SDS011;13816;53.628;9.950;2023-04-01T03:44:01;10.53;;;7.67;;
26040;SDS011;13816;53.628;9.950;2023-04-01T03:46:27;9.17;;;6.57;;
26040;SDS011;13816;53.628;9.950;2023-04-01T03:48:53;10.60;;;7.57;;
26040;SDS011;13816;53.628;9.950;2023-04-01T03:51:19;14.37;;;7.10;;
26040;SDS011;13816;53.628;9.950;2023-04-01T03:53:46;17.13;;;7.60;;
26040;SDS011;13816;53.628;9.950;2023-04-01T03:56:12;17.93;;;7.60;;
26040;SDS011;13816;53.628;9.950;2023-04-01T03:58:38;12.93;;;7.10;;
26040;SDS011;13816;53.628;9.950;2023-04-01T04:01:13;13.10;;;6.90;;
26040;SDS011;13816;53.628;9.950;2023-04-01T04:03:40;16.57;;;8.70;;
26040;SDS011;13816;53.628;9.950;2023-04-01T04:06:09;14.47;;;7.87;;
26040;SDS011;13816;53.628;9.950;2023-04-01T04:08:36;11.40;;;6.87;;
26040;SDS011;13816;53.628;9.950;2023-04-01T04:11:02;14.53;;;8.40;;
26040;SDS011;13816;53.628;9.950;2023-04-01T04:13:28;11.23;;;7.87;;
26040;SDS011;13816;53.628;9.950;2023-04-01T04:15:59;13.60;;;8.00;;
26040;SDS011;13816;53.628;9.950;2023-04-01T04:18:26;12.60;;;8.60;;
26040;SDS011;13816;53.628;9.950;2023-04-01T04:20:53;12.83;;;7.93;;
26040;SDS011;13816;53.628;9.950;2023-04-01T04:23:19;12.87;;;7.93;;
26040;SDS011;13816;53.628;9.950;2023-04-01T04:26:02;12.10;;;7.80;;
26040;SDS011;13816;53.628;9.950;2023-04-01T04:28:29;12.97;;;7.47;;
26040;SDS011;13816;53.628;9.950;2023-04-01T04:30:56;10.17;;;8.10;;
26040;SDS011;13816;53.628;9.950;2023-04-01T04:33:23;9.20;;;7.40;;
26040;SDS011;13816;53.628;9.950;2023-04-01T04:35:49;10.27;;;8.00;;
26040;SDS011;13816;53.628;9.950;2023-04-01T04:38:16;11.17;;;8.23;;
26040;SDS011;13816;53.628;9.950;2023-04-01T04:40:42;11.13;;;8.60;;
26040;SDS011;13816;53.628;9.950;2023-04-01T04:43:10;13.60;;;9.80;;
26040;SDS011;13816;53.628;9.950;2023-04-01T04:45:38;10.47;;;7.87;;
26040;SDS011;13816;53.628;9.950;2023-04-01T04:48:04;11.77;;;8.10;;
26040;SDS011;13816;53.628;9.950;2023-04-01T04:50:31;10.70;;;8.07;;
26040;SDS011;13816;53.628;9.950;2023-04-01T04:52:57;12.93;;;8.70;;
26040;SDS011;13816;53.628;9.950;2023-04-01T04:55:23;12.80;;;8.70;;
26040;SDS011;13816;53.628;9.950;2023-04-01T04:58:08;15.00;;;7.23;;
26040;SDS011;13816;53.628;9.950;2023-04-01T05:00:34;5.93;;;5.10;;
26040;SDS011;13816;53.628;9.950;2023-04-01T05:03:04;3.10;;;2.43;;
26040;SDS011;13816;53.628;9.950;2023-04-01T05:05:31;2.43;;;2.23;;
26040;SDS011;13816;53.628;9.950;2023-04-01T05:07:57;1.90;;;1.70;;
26040;SDS011;13816;53.628;9.950;2023-04-01T05:10:24;2.47;;;1.80;;
26040;SDS011;13816;53.628;9.950;2023-04-01T05:12:50;1.83;;;1.10;;
26040;SDS011;13816;53.628;9.950;2023-04-01T05:15:20;1.40;;;1.30;;
26040;SDS011;13816;53.628;9.950;2023-04-01T05:17:46;1.30;;;1.20;;
26040;SDS011;13816;53.628;9.950;2023-04-01T05:20:13;2.20;;;1.70;;
26040;SDS011;13816;53.628;9.950;2023-04-01T05:22:40;2.00;;;1.77;;
26040;SDS011;13816;53.628;9.950;2023-04-01T05:25:06;1.40;;;1.30;;
26040;SDS011;13816;53.628;9.950;2023-04-01T05:27:33;1.40;;;1.30;;
26040;SDS011;13816;53.628;9.950;2023-04-01T05:29:59;1.40;;;1.23;;
26040;SDS011;13816;53.628;9.950;2023-04-01T05:32:57;1.43;;;1.33;;
26040;SDS011;13816;53.628;9.950;2023-04-01T05:35:24;1.20;;;1.10;;
26040;SDS011;13816;53.628;9.950;2023-04-01T05:37:50;1.23;;;1.13;;
26040;SDS011;13816;53.628;9.950;2023-04-01T05:40:17;3.37;;;1.20;;
26040;SDS011;13816;53.628;9.950;2023-04-01T05:42:43;2.83;;;1.57;;
26040;SDS011;13816;53.628;9.950;2023-04-01T05:45:10;2.37;;;1.20;;
26040;SDS011;13816;53.628;9.950;2023-04-01T05:47:57;1.50;;;1.40;;
26040;SDS011;13816;53.628;9.950;2023-04-01T05:50:27;1.33;;;1.23;;
26040;SDS011;13816;53.628;9.950;2023-04-01T05:52:54;1.97;;;1.10;;
26040;SDS011;13816;53.628;9.950;2023-04-01T05:55:21;1.53;;;1.43;;
26040;SDS011;13816;53.628;9.950;2023-04-01T05:57:49;1.50;;;1.40;;
26040;SDS011;13816;53.628;9.950;2023-04-01T06:00:16;4.37;;;2.10;;
26040;SDS011;13816;53.628;9.950;2023-04-01T06:02:43;1.60;;;1.50;;
26040;SDS011;13816;53.628;9.950;2023-04-01T06:07:37;1.40;;;1.30;;
26040;SDS011;13816;53.628;9.950;2023-04-01T06:10:08;1.43;;;1.23;;
26040;SDS011;13816;53.628;9.950;2023-04-01T06:15:10;1.50;;;1.33;;
26040;SDS011;13816;53.628;9.950;2023-04-01T06:34:10;1.30;;;1.20;;
26040;SDS011;13816;53.628;9.950;2023-04-01T06:36:53;1.67;;;1.43;;
26040;SDS011;13816;53.628;9.950;2023-04-01T06:44:39;1.47;;;1.13;;
26040;SDS011;13816;53.628;9.950;2023-04-01T06:50:31;1.20;;;1.10;;
26040;SDS011;13816;53.628;9.950;2023-04-01T06:53:43;1.60;;;1.20;;
26040;SDS011;13816;53.628;9.950;2023-04-01T06:56:30;0.93;;;0.93;;
26040;SDS011;13816;53.628;9.950;2023-04-01T06:59:12;1.57;;;1.10;;
26040;SDS011;13816;53.628;9.950;2023-04-01T07:01:49;0.80;;;0.80;;
26040;SDS011;13816;53.628;9.950;2023-04-01T07:04:35;1.10;;;1.00;;
26040;SDS011;13816;53.628;9.950;2023-04-01T07:07:04;1.13;;;1.03;;
26040;SDS011;13816;53.628;9.950;2023-04-01T07:09:40;1.20;;;1.07;;
26040;SDS011;13816;53.628;9.950;2023-04-01T07:15:30;1.13;;;1.03;;
26040;SDS011;13816;53.628;9.950;2023-04-01T07:18:12;1.43;;;1.17;;
26040;SDS011;13816;53.628;9.950;2023-04-01T07:20:41;1.10;;;0.90;;
26040;SDS011;13816;53.628;9.950;2023-04-01T07:23:10;1.47;;;1.07;;
26040;SDS011;13816;53.628;9.950;2023-04-01T07:26:06;1.10;;;1.00;;
26040;SDS011;13816;53.628;9.950;2023-04-01T07:28:57;2.20;;;1.10;;
26040;SDS011;13816;53.628;9.950;2023-04-01T07:31:49;0.90;;;0.90;;
26040;SDS011;13816;53.628;9.950;2023-04-01T07:37:13;2.17;;;0.93;;
26040;SDS011;13816;53.628;9.950;2023-04-01T07:48:14;1.20;;;1.10;;
26040;SDS011;13816;53.628;9.950;2023-04-01T07:53:47;1.63;;;1.47;;
26040;SDS011;13816;53.628;9.950;2023-04-01T07:56:22;1.20;;;1.10;;
26040;SDS011;13816;53.628;9.950;2023-04-01T07:58:54;1.10;;;1.00;;
26040;SDS011;13816;53.628;9.950;2023-04-01T08:04:28;1.40;;;1.30;;
26040;SDS011;13816;53.628;9.950;2023-04-01T08:09:27;1.33;;;1.10;;
26040;SDS011;13816;53.628;9.950;2023-04-01T08:21:28;2.17;;;1.70;;
26040;SDS011;13816;53.628;9.950;2023-04-01T08:23:56;3.37;;;1.53;;
26040;SDS011;13816;53.628;9.950;2023-04-01T08:26:26;1.47;;;1.37;;
26040;SDS011;13816;53.628;9.950;2023-04-01T08:28:57;1.50;;;1.30;;
26040;SDS011;13816;53.628;9.950;2023-04-01T08:33:53;1.53;;;1.10;;
26040;SDS011;13816;53.628;9.950;2023-04-01T08:36:21;1.40;;;1.00;;
26040;SDS011;13816;53.628;9.950;2023-04-01T08:39:09;1.20;;;1.10;;
26040;SDS011;13816;53.628;9.950;2023-04-01T08:52:52;1.90;;;1.10;;
26040;SDS011;13816;53.628;9.950;2023-04-01T08:55:27;0.90;;;0.90;;
26040;SDS011;13816;53.628;9.950;2023-04-01T08:58:17;1.37;;;0.90;;
26040;SDS011;13816;53.628;9.950;2023-04-01T09:09:06;1.30;;;1.20;;
26040;SDS011;13816;53.628;9.950;2023-04-01T09:25:24;0.80;;;0.73;;
26040;SDS011;13816;53.628;9.950;2023-04-01T09:30:44;0.83;;;0.83;;
26040;SDS011;13816;53.628;9.950;2023-04-01T09:35:48;1.27;;;1.17;;
26040;SDS011;13816;53.628;9.950;2023-04-01T09:40:54;0.90;;;0.90;;
26040;SDS011;13816;53.628;9.950;2023-04-01T09:52:05;1.43;;;0.87;;
26040;SDS011;13816;53.628;9.950;2023-04-01T10:13:36;0.97;;;0.80;;
26040;SDS011;13816;53.628;9.950;2023-04-01T10:40:33;6.50;;;1.00;;
26040;SDS011;13816;53.628;9.950;2023-04-01T11:00:53;1.13;;;0.90;;
26040;SDS011;13816;53.628;9.950;2023-04-01T11:03:57;2.70;;;0.67;;
26040;SDS011;13816;53.628;9.950;2023-04-01T11:11:56;2.07;;;1.00;;
26040;SDS011;13816;53.628;9.950;2023-04-01T11:17:14;2.90;;;1.10;;
26040;SDS011;13816;53.628;9.950;2023-04-01T11:27:52;1.40;;;1.13;;
26040;SDS011;13816;53.628;9.950;2023-04-01T11:32:57;5.70;;;1.83;;
26040;SDS011;13816;53.628;9.950;2023-04-01T11:35:32;2.63;;;1.43;;
26040;SDS011;13816;53.628;9.950;2023-04-01T11:38:49;2.07;;;1.87;;
26040;SDS011;13816;53.628;9.950;2023-04-01T11:44:24;2.93;;;1.90;;
26040;SDS011;13816;53.628;9.950;2023-04-01T12:02:52;2.17;;;1.97;;
26040;SDS011;13816;53.628;9.950;2023-04-01T12:08:06;3.87;;;2.47;;
26040;SDS011;13816;53.628;9.950;2023-04-01T12:13:14;3.73;;;2.60;;
26040;SDS011;13816;53.628;9.950;2023-04-01T12:26:27;7.50;;;3.30;;
26040;SDS011;13816;53.628;9.950;2023-04-01T12:31:26;4.10;;;3.60;;
26040;SDS011;13816;53.628;9.950;2023-04-01T12:34:39;4.20;;;3.80;;
26040;SDS011;13816;53.628;9.950;2023-04-01T12:36:46;8.63;;;3.70;;
26040;SDS011;13816;53.628;9.950;2023-04-01T12:39:29;5.63;;;4.87;;
26040;SDS011;13816;53.628;9.950;2023-04-01T12:55:50;6.27;;;4.37;;
26040;SDS011;13816;53.628;9.950;2023-04-01T13:07:04;7.70;;;5.17;;
26040;SDS011;13816;53.628;9.950;2023-04-01T13:15:39;8.33;;;3.97;;
26040;SDS011;13816;53.628;9.950;2023-04-01T13:18:28;7.00;;;3.90;;
26040;SDS011;13816;53.628;9.950;2023-04-01T13:21:20;5.17;;;3.73;;
26040;SDS011;13816;53.628;9.950;2023-04-01T13:29:15;4.00;;;3.30;;
26040;SDS011;13816;53.628;9.950;2023-04-01T13:31:54;4.77;;;3.43;;
26040;SDS011;13816;53.628;9.950;2023-04-01T13:42:54;10.13;;;4.80;;
26040;SDS011;13816;53.628;9.950;2023-04-01T13:55:54;8.80;;;3.70;;
26040;SDS011;13816;53.628;9.950;2023-04-01T14:01:08;4.90;;;3.70;;
26040;SDS011;13816;53.628;9.950;2023-04-01T14:06:29;9.33;;;4.37;;
26040;SDS011;13816;53.628;9.950;2023-04-01T14:09:44;5.53;;;3.33;;
26040;SDS011;13816;53.628;9.950;2023-04-01T14:25:18;8.37;;;4.33;;
26040;SDS011;13816;53.628;9.950;2023-04-01T14:27:54;5.13;;;4.27;;
26040;SDS011;13816;53.628;9.950;2023-04-01T14:30:36;7.73;;;4.20;;
26040;SDS011;13816;53.628;9.950;2023-04-01T14:33:23;8.70;;;5.07;;
26040;SDS011;13816;53.628;9.950;2023-04-01T14:36:10;8.17;;;4.83;;
26040;SDS011;13816;53.628;9.950;2023-04-01T14:41:21;7.90;;;4.10;;
26040;SDS011;13816;53.628;9.950;2023-04-01T14:51:42;7.00;;;4.50;;
26040;SDS011;13816;53.628;9.950;2023-04-01T14:54:15;6.67;;;4.30;;
26040;SDS011;13816;53.628;9.950;2023-04-01T14:56:48;8.27;;;4.00;;
26040;SDS011;13816;53.628;9.950;2023-04-01T15:04:54;11.37;;;4.70;;
26040;SDS011;13816;53.628;9.950;2023-04-01T15:07:35;10.90;;;4.43;;
26040;SDS011;13816;53.628;9.950;2023-04-01T15:10:09;14.00;;;4.40;;
26040;SDS011;13816;53.628;9.950;2023-04-01T15:13:00;7.90;;;4.40;;
26040;SDS011;13816;53.628;9.950;2023-04-01T15:18:29;9.10;;;5.00;;
26040;SDS011;13816;53.628;9.950;2023-04-01T15:26:16;6.93;;;4.37;;
26040;SDS011;13816;53.628;9.950;2023-04-01T15:28:58;10.93;;;4.33;;
26040;SDS011;13816;53.628;9.950;2023-04-01T15:31:36;11.50;;;4.97;;
26040;SDS011;13816;53.628;9.950;2023-04-01T15:34:20;7.13;;;4.00;;
26040;SDS011;13816;53.628;9.950;2023-04-01T15:39:30;8.00;;;4.63;;
26040;SDS011;13816;53.628;9.950;2023-04-01T15:50:16;9.20;;;4.50;;
26040;SDS011;13816;53.628;9.950;2023-04-01T15:55:10;6.13;;;4.20;;
26040;SDS011;13816;53.628;9.950;2023-04-01T16:00:26;10.93;;;4.63;;
26040;SDS011;13816;53.628;9.950;2023-04-01T16:15:56;7.03;;;4.57;;
26040;SDS011;13816;53.628;9.950;2023-04-01T16:23:39;8.57;;;4.60;;
26040;SDS011;13816;53.628;9.950;2023-04-01T16:26:15;6.17;;;4.97;;
26040;SDS011;13816;53.628;9.950;2023-04-01T16:28:52;7.53;;;4.60;;
26040;SDS011;13816;53.628;9.950;2023-04-01T16:31:31;7.13;;;4.87;;
26040;SDS011;13816;53.628;9.950;2023-04-01T16:34:03;7.50;;;4.20;;
26040;SDS011;13816;53.628;9.950;2023-04-01T16:36:44;8.37;;;4.40;;
26040;SDS011;13816;53.628;9.950;2023-04-01T16:39:28;9.10;;;3.87;;
26040;SDS011;13816;53.628;9.950;2023-04-01T16:42:09;13.97;;;5.07;;
26040;SDS011;13816;53.628;9.950;2023-04-01T16:44:49;6.70;;;4.70;;
26040;SDS011;13816;53.628;9.950;2023-04-01T16:47:20;11.00;;;4.50;;
26040;SDS011;13816;53.628;9.950;2023-04-01T16:49:50;6.77;;;4.87;;
26040;SDS011;13816;53.628;9.950;2023-04-01T16:52:34;6.80;;;4.20;;
26040;SDS011;13816;53.628;9.950;2023-04-01T16:55:12;7.03;;;5.00;;
26040;SDS011;13816;53.628;9.950;2023-04-01T16:57:45;9.83;;;4.40;;
26040;SDS011;13816;53.628;9.950;2023-04-01T17:00:29;15.80;;;4.27;;
26040;SDS011;13816;53.628;9.950;2023-04-01T17:05:40;15.73;;;5.27;;
26040;SDS011;13816;53.628;9.950;2023-04-01T17:21:14;10.43;;;4.57;;
26040;SDS011;13816;53.628;9.950;2023-04-01T17:23:48;5.30;;;3.33;;
26040;SDS011;13816;53.628;9.950;2023-04-01T17:36:45;8.43;;;4.03;;
26040;SDS011;13816;53.628;9.950;2023-04-01T17:42:09;4.90;;;3.20;;
26040;SDS011;13816;53.628;9.950;2023-04-01T17:57:33;7.43;;;3.70;;
26040;SDS011;13816;53.628;9.950;2023-04-01T18:05:19;11.00;;;4.47;;
26040;SDS011;13816;53.628;9.950;2023-04-01T18:10:31;7.30;;;3.90;;
26040;SDS011;13816;53.628;9.950;2023-04-01T18:23:19;6.83;;;3.60;;
26040;SDS011;13816;53.628;9.950;2023-04-01T18:25:47;4.30;;;3.20;;
26040;SDS011;13816;53.628;9.950;2023-04-01T18:30:40;8.10;;;3.30;;
26040;SDS011;13816;53.628;9.950;2023-04-01T18:33:28;10.60;;;3.83;;
26040;SDS011;13816;53.628;9.950;2023-04-01T18:38:32;3.93;;;3.50;;
26040;SDS011;13816;53.628;9.950;2023-04-01T18:43:57;7.23;;;3.30;;
26040;SDS011;13816;53.628;9.950;2023-04-01T18:51:47;8.50;;;4.43;;
26040;SDS011;13816;53.628;9.950;2023-04-01T18:54:33;5.70;;;3.37;;
26040;SDS011;13816;53.628;9.950;2023-04-01T18:57:13;6.40;;;4.30;;
26040;SDS011;13816;53.628;9.950;2023-04-01T19:02:42;4.60;;;3.30;;
26040;SDS011;13816;53.628;9.950;2023-04-01T19:05:14;10.73;;;4.20;;
26040;SDS011;13816;53.628;9.950;2023-04-01T19:07:44;6.20;;;3.63;;
26040;SDS011;13816;53.628;9.950;2023-04-01T19:12:42;4.07;;;3.37;;
26040;SDS011;13816;53.628;9.950;2023-04-01T19:15:37;5.60;;;3.70;;
26040;SDS011;13816;53.628;9.950;2023-04-01T19:18:11;9.07;;;4.07;;
26040;SDS011;13816;53.628;9.950;2023-04-01T19:20:48;5.43;;;3.50;;
26040;SDS011;13816;53.628;9.950;2023-04-01T19:26:11;10.00;;;3.87;;
26040;SDS011;13816;53.628;9.950;2023-04-01T19:37:19;9.13;;;3.60;;
26040;SDS011;13816;53.628;9.950;2023-04-01T19:42:01;8.77;;;3.70;;
26040;SDS011;13816;53.628;9.950;2023-04-01T19:44:46;5.67;;;3.50;;
26040;SDS011;13816;53.628;9.950;2023-04-01T19:52:45;7.10;;;2.93;;
26040;SDS011;13816;53.628;9.950;2023-04-01T20:06:02;3.30;;;3.00;;
26040;SDS011;13816;53.628;9.950;2023-04-01T20:08:36;7.60;;;3.80;;
26040;SDS011;13816;53.628;9.950;2023-04-01T20:11:17;10.80;;;3.63;;
26040;SDS011;13816;53.628;9.950;2023-04-01T20:16:35;10.57;;;3.50;;
26040;SDS011;13816;53.628;9.950;2023-04-01T20:19:06;7.77;;;3.13;;
26040;SDS011;13816;53.628;9.950;2023-04-01T20:21:34;8.50;;;3.80;;
26040;SDS011;13816;53.628;9.950;2023-04-01T20:24:07;9.43;;;3.07;;
26040;SDS011;13816;53.628;9.950;2023-04-01T20:26:41;7.67;;;3.10;;
26040;SDS011;13816;53.628;9.950;2023-04-01T20:31:43;8.10;;;3.37;;
26040;SDS011;13816;53.628;9.950;2023-04-01T20:37:02;7.17;;;3.50;;
26040;SDS011;13816;53.628;9.950;2023-04-01T20:51:13;7.30;;;3.40;;
26040;SDS011;13816;53.628;9.950;2023-04-01T20:59:02;6.80;;;3.70;;
26040;SDS011;13816;53.628;9.950;2023-04-01T21:04:18;6.30;;;3.90;;
26040;SDS011;13816;53.628;9.950;2023-04-01T21:09:27;14.70;;;3.50;;
26040;SDS011;13816;53.628;9.950;2023-04-01T21:15:02;7.73;;;3.43;;
26040;SDS011;13816;53.628;9.950;2023-04-01T21:17:28;8.23;;;3.90;;
26040;SDS011;13816;53.628;9.950;2023-04-01T21:22:29;5.63;;;3.37;;
26040;SDS011;13816;53.628;9.950;2023-04-01T21:25:16;6.17;;;2.90;;
26040;SDS011;13816;53.628;9.950;2023-04-01T21:35:35;6.93;;;3.60;;
26040;SDS011;13816;53.628;9.950;2023-04-01T21:59:16;6.07;;;2.60;;
26040;SDS011;13816;53.628;9.950;2023-04-01T22:07:21;4.70;;;2.50;;
26040;SDS011;13816;53.628;9.950;2023-04-01T22:12:38;10.20;;;3.17;;
26040;SDS011;13816;53.628;9.950;2023-04-01T22:25:22;5.40;;;2.50;;
26040;SDS011;13816;53.628;9.950;2023-04-01T22:30:41;4.13;;;2.03;;
26040;SDS011;13816;53.628;9.950;2023-04-01T22:33:14;4.73;;;2.13;;
26040;SDS011;13816;53.628;9.950;2023-04-01T22:40:40;7.60;;;1.83;;
26040;SDS011;13816;53.628;9.950;2023-04-01T22:43:08;6.50;;;2.50;;
26040;SDS011;13816;53.628;9.950;2023-04-01T22:48:26;8.77;;;2.60;;
26040;SDS011;13816;53.628;9.950;2023-04-01T22:51:41;9.13;;;2.53;;
26040;SDS011;13816;53.628;9.950;2023-04-01T22:56:36;4.97;;;1.80;;
26040;SDS011;13816;53.628;9.950;2023-04-01T22:59:02;4.10;;;2.13;;
26040;SDS011;13816;53.628;9.950;2023-04-01T23:01:32;6.83;;;2.10;;
26040;SDS011;13816;53.628;9.950;2023-04-01T23:03:59;11.30;;;3.07;;
26040;SDS011;13816;53.628;9.950;2023-04-01T23:06:31;7.53;;;2.30;;
26040;SDS011;13816;53.628;9.950;2023-04-01T23:09:01;12.83;;;1.87;;
26040;SDS011;13816;53.628;9.950;2023-04-01T23:11:32;4.37;;;2.70;;
26040;SDS011;13816;53.628;9.950;2023-04-01T23:14:16;5.40;;;1.77;;
26040;SDS011;13816;53.628;9.950;2023-04-01T23:22:21;9.00;;;2.30;;
26040;SDS011;13816;53.628;9.950;2023-04-01T23:27:37;7.50;;;2.40;;
26040;SDS011;13816;53.628;9.950;2023-04-01T23:30:19;6.47;;;2.10;;
26040;SDS011;13816;53.628;9.950;2023-04-01T23:32:51;5.70;;;1.90;;
26040;SDS011;13816;53.628;9.950;2023-04-01T23:35:17;3.90;;;1.90;;
26040;SDS011;13816;53.628;9.950;2023-04-01T23:37:43;5.90;;;1.90;;
26040;SDS011;13816;53.628;9.950;2023-04-01T23:40:12;4.97;;;1.63;;
26040;SDS011;13816;53.628;9.950;2023-04-01T23:42:39;5.73;;;1.80;;
26040;SDS011;13816;53.628;9.950;2023-04-01T23:45:11;3.47;;;1.87;;
26040;SDS011;13816;53.628;9.950;2023-04-01T23:47:39;5.30;;;1.80;;
26040;SDS011;13816;53.628;9.950;2023-04-01T23:50:13;4.13;;;2.33;;
26040;SDS011;13816;53.628;9.950;2023-04-01T23:52:44;4.03;;;2.10;;
26040;SDS011;13816;53.628;9.950;2023-04-01T23:55:21;9.27;;;1.57;;
